sensor_id;sensor_type;location;lat;lon;timestamp;temperature;humidity
42095;DHT22;27753;55.724;37.612;2023-04-24T00:00:16;12.50;56.30
42095;DHT22;27753;55.724;37.612;2023-04-24T00:02:44;12.50;56.40
42095;DHT22;27753;55.724;37.612;2023-04-24T00:05:17;12.50;56.50
42095;DHT22;27753;55.724;37.612;2023-04-24T00:07:44;12.40;56.70
42095;DHT22;27753;55.724;37.612;2023-04-24T00:10:11;12.50;56.50
42095;DHT22;27753;55.724;37.612;2023-04-24T00:12:37;12.40;56.40
42095;DHT22;27753;55.724;37.612;2023-04-24T00:15:04;12.40;56.30
42095;DHT22;27753;55.724;37.612;2023-04-24T00:17:30;12.40;56.20
42095;DHT22;27753;55.724;37.612;2023-04-24T00:19:56;12.30;56.20
42095;DHT22;27753;55.724;37.612;2023-04-24T00:22:25;12.30;56.40
42095;DHT22;27753;55.724;37.612;2023-04-24T00:24:51;12.30;56.70
42095;DHT22;27753;55.724;37.612;2023-04-24T00:27:17;12.30;57.60
42095;DHT22;27753;55.724;37.612;2023-04-24T00:29:43;12.30;57.30
42095;DHT22;27753;55.724;37.612;2023-04-24T00:32:09;12.20;57.50
42095;DHT22;27753;55.724;37.612;2023-04-24T00:34:35;12.20;57.50
42095;DHT22;27753;55.724;37.612;2023-04-24T00:37:01;12.20;57.70
42095;DHT22;27753;55.724;37.612;2023-04-24T00:39:26;12.10;57.80
42095;DHT22;27753;55.724;37.612;2023-04-24T00:41:52;12.10;57.80
42095;DHT22;27753;55.724;37.612;2023-04-24T00:44:18;12.10;58.50
42095;DHT22;27753;55.724;37.612;2023-04-24T00:46:46;12.10;58.00
42095;DHT22;27753;55.724;37.612;2023-04-24T00:49:13;12.10;57.70
42095;DHT22;27753;55.724;37.612;2023-04-24T00:51:39;12.10;57.60
42095;DHT22;27753;55.724;37.612;2023-04-24T00:54:06;12.10;57.80
42095;DHT22;27753;55.724;37.612;2023-04-24T00:56:32;12.10;57.90
42095;DHT22;27753;55.724;37.612;2023-04-24T00:58:58;12.10;57.90
42095;DHT22;27753;55.724;37.612;2023-04-24T01:01:24;12.00;58.00
42095;DHT22;27753;55.724;37.612;2023-04-24T01:03:51;12.00;58.10
42095;DHT22;27753;55.724;37.612;2023-04-24T01:06:18;12.00;57.90
42095;DHT22;27753;55.724;37.612;2023-04-24T01:08:45;12.00;58.10
42095;DHT22;27753;55.724;37.612;2023-04-24T01:11:12;12.00;57.90
42095;DHT22;27753;55.724;37.612;2023-04-24T01:13:38;11.90;58.10
42095;DHT22;27753;55.724;37.612;2023-04-24T01:16:05;11.90;57.10
42095;DHT22;27753;55.724;37.612;2023-04-24T01:18:31;12.00;58.40
42095;DHT22;27753;55.724;37.612;2023-04-24T01:20:58;11.90;58.30
42095;DHT22;27753;55.724;37.612;2023-04-24T01:23:25;11.90;58.40
42095;DHT22;27753;55.724;37.612;2023-04-24T01:25:52;11.90;58.60
42095;DHT22;27753;55.724;37.612;2023-04-24T01:28:18;11.80;58.80
42095;DHT22;27753;55.724;37.612;2023-04-24T01:30:44;11.80;58.80
42095;DHT22;27753;55.724;37.612;2023-04-24T01:33:10;11.80;58.80
42095;DHT22;27753;55.724;37.612;2023-04-24T01:35:37;11.80;57.40
42095;DHT22;27753;55.724;37.612;2023-04-24T01:38:03;11.80;58.10
42095;DHT22;27753;55.724;37.612;2023-04-24T01:40:30;11.80;58.60
42095;DHT22;27753;55.724;37.612;2023-04-24T01:42:58;11.80;58.80
42095;DHT22;27753;55.724;37.612;2023-04-24T01:45:23;11.70;58.50
42095;DHT22;27753;55.724;37.612;2023-04-24T01:47:49;11.70;58.20
42095;DHT22;27753;55.724;37.612;2023-04-24T01:50:15;11.70;57.90
42095;DHT22;27753;55.724;37.612;2023-04-24T01:52:41;11.70;58.40
42095;DHT22;27753;55.724;37.612;2023-04-24T01:55:07;11.70;58.70
42095;DHT22;27753;55.724;37.612;2023-04-24T01:57:34;11.70;58.90
42095;DHT22;27753;55.724;37.612;2023-04-24T02:00:01;11.70;58.90
42095;DHT22;27753;55.724;37.612;2023-04-24T02:02:29;11.70;59.00
42095;DHT22;27753;55.724;37.612;2023-04-24T02:04:56;11.70;59.20
42095;DHT22;27753;55.724;37.612;2023-04-24T02:07:22;11.60;59.20
42095;DHT22;27753;55.724;37.612;2023-04-24T02:09:48;11.60;59.30
42095;DHT22;27753;55.724;37.612;2023-04-24T02:12:15;11.60;59.30
42095;DHT22;27753;55.724;37.612;2023-04-24T02:14:43;11.60;59.50
42095;DHT22;27753;55.724;37.612;2023-04-24T02:17:09;11.60;59.60
42095;DHT22;27753;55.724;37.612;2023-04-24T02:19:35;11.60;59.90
42095;DHT22;27753;55.724;37.612;2023-04-24T02:22:01;11.60;59.80
42095;DHT22;27753;55.724;37.612;2023-04-24T02:24:26;11.60;59.90
42095;DHT22;27753;55.724;37.612;2023-04-24T02:26:52;11.60;60.30
42095;DHT22;27753;55.724;37.612;2023-04-24T02:29:18;11.60;60.30
42095;DHT22;27753;55.724;37.612;2023-04-24T02:31:44;11.60;60.40
42095;DHT22;27753;55.724;37.612;2023-04-24T02:34:10;11.70;59.70
42095;DHT22;27753;55.724;37.612;2023-04-24T02:36:35;11.70;59.80
42095;DHT22;27753;55.724;37.612;2023-04-24T02:39:01;11.80;60.50
42095;DHT22;27753;55.724;37.612;2023-04-24T02:41:27;11.80;60.00
42095;DHT22;27753;55.724;37.612;2023-04-24T02:43:57;11.90;59.80
42095;DHT22;27753;55.724;37.612;2023-04-24T02:46:23;11.90;59.90
42095;DHT22;27753;55.724;37.612;2023-04-24T02:48:49;12.00;60.00
42095;DHT22;27753;55.724;37.612;2023-04-24T02:51:15;12.00;59.50
42095;DHT22;27753;55.724;37.612;2023-04-24T02:53:41;12.10;59.50
42095;DHT22;27753;55.724;37.612;2023-04-24T02:56:06;12.20;59.40
42095;DHT22;27753;55.724;37.612;2023-04-24T02:58:32;12.20;58.70
42095;DHT22;27753;55.724;37.612;2023-04-24T03:00:58;12.30;59.10
42095;DHT22;27753;55.724;37.612;2023-04-24T03:03:24;12.30;59.10
42095;DHT22;27753;55.724;37.612;2023-04-24T03:05:50;12.40;59.10
42095;DHT22;27753;55.724;37.612;2023-04-24T03:08:16;12.50;58.80
42095;DHT22;27753;55.724;37.612;2023-04-24T03:10:43;12.60;57.90
42095;DHT22;27753;55.724;37.612;2023-04-24T03:13:09;12.70;57.60
42095;DHT22;27753;55.724;37.612;2023-04-24T03:15:35;12.80;57.10
42095;DHT22;27753;55.724;37.612;2023-04-24T03:18:00;12.90;56.70
42095;DHT22;27753;55.724;37.612;2023-04-24T03:20:26;13.00;56.90
42095;DHT22;27753;55.724;37.612;2023-04-24T03:22:52;13.00;56.20
42095;DHT22;27753;55.724;37.612;2023-04-24T03:25:18;13.10;55.80
42095;DHT22;27753;55.724;37.612;2023-04-24T03:27:44;13.20;55.50
42095;DHT22;27753;55.724;37.612;2023-04-24T03:30:10;13.20;55.20
42095;DHT22;27753;55.724;37.612;2023-04-24T03:32:36;13.30;55.30
42095;DHT22;27753;55.724;37.612;2023-04-24T03:35:02;13.40;55.20
42095;DHT22;27753;55.724;37.612;2023-04-24T03:37:29;13.50;55.20
42095;DHT22;27753;55.724;37.612;2023-04-24T03:39:54;13.60;55.00
42095;DHT22;27753;55.724;37.612;2023-04-24T03:42:20;13.70;54.70
42095;DHT22;27753;55.724;37.612;2023-04-24T03:44:46;13.80;54.50
42095;DHT22;27753;55.724;37.612;2023-04-24T03:47:12;13.90;54.10
42095;DHT22;27753;55.724;37.612;2023-04-24T03:49:38;13.90;53.80
42095;DHT22;27753;55.724;37.612;2023-04-24T03:52:04;14.00;53.80
42095;DHT22;27753;55.724;37.612;2023-04-24T03:54:29;14.10;53.80
42095;DHT22;27753;55.724;37.612;2023-04-24T03:56:55;14.10;53.50
42095;DHT22;27753;55.724;37.612;2023-04-24T03:59:21;14.20;53.30
42095;DHT22;27753;55.724;37.612;2023-04-24T04:01:47;14.30;52.90
42095;DHT22;27753;55.724;37.612;2023-04-24T04:04:13;14.40;52.70
42095;DHT22;27753;55.724;37.612;2023-04-24T04:06:38;14.40;52.50
42095;DHT22;27753;55.724;37.612;2023-04-24T04:09:04;14.60;52.20
42095;DHT22;27753;55.724;37.612;2023-04-24T04:11:30;14.60;51.80
42095;DHT22;27753;55.724;37.612;2023-04-24T04:13:56;14.70;51.40
42095;DHT22;27753;55.724;37.612;2023-04-24T04:16:22;14.70;51.40
42095;DHT22;27753;55.724;37.612;2023-04-24T04:18:48;14.70;51.00
42095;DHT22;27753;55.724;37.612;2023-04-24T04:21:14;14.70;50.60
42095;DHT22;27753;55.724;37.612;2023-04-24T04:23:40;14.80;50.90
42095;DHT22;27753;55.724;37.612;2023-04-24T04:26:07;14.90;50.70
42095;DHT22;27753;55.724;37.612;2023-04-24T04:28:33;14.90;50.20
42095;DHT22;27753;55.724;37.612;2023-04-24T04:31:00;15.00;50.40
42095;DHT22;27753;55.724;37.612;2023-04-24T04:33:26;15.10;50.20
42095;DHT22;27753;55.724;37.612;2023-04-24T04:35:52;15.20;49.90
42095;DHT22;27753;55.724;37.612;2023-04-24T04:38:19;15.30;49.50
42095;DHT22;27753;55.724;37.612;2023-04-24T04:40:46;16.10;48.60
42095;DHT22;27753;55.724;37.612;2023-04-24T04:43:12;16.30;48.80
42095;DHT22;27753;55.724;37.612;2023-04-24T04:45:40;17.10;47.40
42095;DHT22;27753;55.724;37.612;2023-04-24T04:48:08;18.30;46.00
42095;DHT22;27753;55.724;37.612;2023-04-24T04:50:35;18.70;44.80
42095;DHT22;27753;55.724;37.612;2023-04-24T04:53:01;19.40;43.70
42095;DHT22;27753;55.724;37.612;2023-04-24T04:55:27;20.00;42.60
42095;DHT22;27753;55.724;37.612;2023-04-24T04:57:53;20.80;41.60
42095;DHT22;27753;55.724;37.612;2023-04-24T05:00:20;21.30;40.30
42095;DHT22;27753;55.724;37.612;2023-04-24T05:02:46;21.90;39.60
42095;DHT22;27753;55.724;37.612;2023-04-24T05:05:12;22.30;38.70
42095;DHT22;27753;55.724;37.612;2023-04-24T05:07:38;22.60;38.20
42095;DHT22;27753;55.724;37.612;2023-04-24T05:12:30;23.90;35.90
42095;DHT22;27753;55.724;37.612;2023-04-24T05:14:56;24.40;36.20
42095;DHT22;27753;55.724;37.612;2023-04-24T05:17:22;24.80;35.10
42095;DHT22;27753;55.724;37.612;2023-04-24T05:19:47;25.20;34.40
42095;DHT22;27753;55.724;37.612;2023-04-24T05:22:13;25.70;34.00
42095;DHT22;27753;55.724;37.612;2023-04-24T05:24:39;26.40;33.80
42095;DHT22;27753;55.724;37.612;2023-04-24T05:27:05;26.90;33.30
42095;DHT22;27753;55.724;37.612;2023-04-24T05:29:31;27.10;32.70
42095;DHT22;27753;55.724;37.612;2023-04-24T05:31:58;27.50;32.50
42095;DHT22;27753;55.724;37.612;2023-04-24T05:34:24;27.80;32.70
42095;DHT22;27753;55.724;37.612;2023-04-24T05:36:50;27.70;30.90
42095;DHT22;27753;55.724;37.612;2023-04-24T05:39:17;27.30;30.80
42095;DHT22;27753;55.724;37.612;2023-04-24T05:41:43;27.40;31.60
42095;DHT22;27753;55.724;37.612;2023-04-24T05:44:09;28.10;31.10
42095;DHT22;27753;55.724;37.612;2023-04-24T05:46:35;28.60;30.40
42095;DHT22;27753;55.724;37.612;2023-04-24T05:49:01;29.30;30.30
42095;DHT22;27753;55.724;37.612;2023-04-24T05:51:28;30.20;30.20
42095;DHT22;27753;55.724;37.612;2023-04-24T05:53:54;30.50;29.00
42095;DHT22;27753;55.724;37.612;2023-04-24T05:56:20;31.00;29.90
42095;DHT22;27753;55.724;37.612;2023-04-24T05:58:46;31.70;29.10
42095;DHT22;27753;55.724;37.612;2023-04-24T06:01:15;32.20;29.00
42095;DHT22;27753;55.724;37.612;2023-04-24T06:03:42;32.70;29.00
42095;DHT22;27753;55.724;37.612;2023-04-24T06:06:08;33.20;28.20
42095;DHT22;27753;55.724;37.612;2023-04-24T06:08:34;33.00;27.20
42095;DHT22;27753;55.724;37.612;2023-04-24T06:11:00;33.00;27.20
42095;DHT22;27753;55.724;37.612;2023-04-24T06:13:26;33.00;27.30
42095;DHT22;27753;55.724;37.612;2023-04-24T06:15:52;33.70;27.30
42095;DHT22;27753;55.724;37.612;2023-04-24T06:18:18;34.20;27.80
42095;DHT22;27753;55.724;37.612;2023-04-24T06:20:47;34.00;26.40
42095;DHT22;27753;55.724;37.612;2023-04-24T06:23:12;33.70;26.60
42095;DHT22;27753;55.724;37.612;2023-04-24T06:28:05;34.10;26.10
42095;DHT22;27753;55.724;37.612;2023-04-24T06:30:31;34.60;26.40
42095;DHT22;27753;55.724;37.612;2023-04-24T06:32:57;35.20;26.20
42095;DHT22;27753;55.724;37.612;2023-04-24T06:35:23;35.10;26.20
42095;DHT22;27753;55.724;37.612;2023-04-24T06:37:49;35.50;25.90
42095;DHT22;27753;55.724;37.612;2023-04-24T06:40:15;35.80;26.20
42095;DHT22;27753;55.724;37.612;2023-04-24T06:42:40;35.80;25.20
42095;DHT22;27753;55.724;37.612;2023-04-24T06:45:07;35.90;25.50
42095;DHT22;27753;55.724;37.612;2023-04-24T06:47:32;35.40;24.90
42095;DHT22;27753;55.724;37.612;2023-04-24T06:49:58;35.30;24.90
42095;DHT22;27753;55.724;37.612;2023-04-24T06:52:24;35.30;24.80
42095;DHT22;27753;55.724;37.612;2023-04-24T06:54:50;34.60;24.60
42095;DHT22;27753;55.724;37.612;2023-04-24T06:57:17;33.60;24.90
42095;DHT22;27753;55.724;37.612;2023-04-24T06:59:43;33.20;25.20
42095;DHT22;27753;55.724;37.612;2023-04-24T07:02:09;33.30;25.30
42095;DHT22;27753;55.724;37.612;2023-04-24T07:04:35;33.60;25.40
42095;DHT22;27753;55.724;37.612;2023-04-24T07:07:01;34.60;25.20
42095;DHT22;27753;55.724;37.612;2023-04-24T07:09:28;35.30;25.00
42095;DHT22;27753;55.724;37.612;2023-04-24T07:11:54;35.00;24.50
42095;DHT22;27753;55.724;37.612;2023-04-24T07:14:22;34.20;24.80
42095;DHT22;27753;55.724;37.612;2023-04-24T07:16:48;34.30;24.70
42095;DHT22;27753;55.724;37.612;2023-04-24T07:19:14;33.60;25.00
42095;DHT22;27753;55.724;37.612;2023-04-24T07:21:41;34.20;25.00
42095;DHT22;27753;55.724;37.612;2023-04-24T07:24:06;35.20;24.80
42095;DHT22;27753;55.724;37.612;2023-04-24T07:26:37;35.80;24.50
42095;DHT22;27753;55.724;37.612;2023-04-24T07:29:03;35.40;24.20
42095;DHT22;27753;55.724;37.612;2023-04-24T07:31:29;35.40;24.70
42095;DHT22;27753;55.724;37.612;2023-04-24T07:36:23;36.70;24.10
42095;DHT22;27753;55.724;37.612;2023-04-24T07:38:49;37.10;23.90
42095;DHT22;27753;55.724;37.612;2023-04-24T07:41:15;36.80;23.80
42095;DHT22;27753;55.724;37.612;2023-04-24T07:43:42;36.80;23.80
42095;DHT22;27753;55.724;37.612;2023-04-24T07:46:10;36.80;23.80
42095;DHT22;27753;55.724;37.612;2023-04-24T07:48:36;37.20;24.00
42095;DHT22;27753;55.724;37.612;2023-04-24T07:51:02;36.80;23.70
42095;DHT22;27753;55.724;37.612;2023-04-24T07:53:28;36.60;24.00
42095;DHT22;27753;55.724;37.612;2023-04-24T07:55:55;37.50;24.00
42095;DHT22;27753;55.724;37.612;2023-04-24T07:58:21;37.80;24.10
42095;DHT22;27753;55.724;37.612;2023-04-24T08:00:47;38.00;23.60
42095;DHT22;27753;55.724;37.612;2023-04-24T08:03:13;38.40;23.60
42095;DHT22;27753;55.724;37.612;2023-04-24T08:05:41;38.80;23.60
42095;DHT22;27753;55.724;37.612;2023-04-24T08:08:08;38.80;23.10
42095;DHT22;27753;55.724;37.612;2023-04-24T08:10:34;38.00;23.20
42095;DHT22;27753;55.724;37.612;2023-04-24T08:13:00;38.40;23.40
42095;DHT22;27753;55.724;37.612;2023-04-24T08:15:27;38.80;23.20
42095;DHT22;27753;55.724;37.612;2023-04-24T08:17:53;37.90;23.20
42095;DHT22;27753;55.724;37.612;2023-04-24T08:20:19;37.50;23.50
42095;DHT22;27753;55.724;37.612;2023-04-24T08:22:45;36.50;23.50
42095;DHT22;27753;55.724;37.612;2023-04-24T08:25:12;35.60;23.80
42095;DHT22;27753;55.724;37.612;2023-04-24T08:27:38;35.30;24.30
42095;DHT22;27753;55.724;37.612;2023-04-24T08:30:05;36.00;24.10
42095;DHT22;27753;55.724;37.612;2023-04-24T08:32:31;36.70;23.80
42095;DHT22;27753;55.724;37.612;2023-04-24T08:34:58;37.30;24.00
42095;DHT22;27753;55.724;37.612;2023-04-24T08:37:26;37.50;23.60
42095;DHT22;27753;55.724;37.612;2023-04-24T08:39:53;37.80;23.60
42095;DHT22;27753;55.724;37.612;2023-04-24T08:42:20;37.40;23.40
42095;DHT22;27753;55.724;37.612;2023-04-24T08:44:47;36.90;23.60
42095;DHT22;27753;55.724;37.612;2023-04-24T08:47:15;37.00;23.50
42095;DHT22;27753;55.724;37.612;2023-04-24T08:49:41;35.90;24.00
42095;DHT22;27753;55.724;37.612;2023-04-24T08:52:08;36.30;24.10
42095;DHT22;27753;55.724;37.612;2023-04-24T08:54:35;36.40;23.60
42095;DHT22;27753;55.724;37.612;2023-04-24T08:57:02;35.20;24.00
42095;DHT22;27753;55.724;37.612;2023-04-24T08:59:29;33.70;24.30
42095;DHT22;27753;55.724;37.612;2023-04-24T09:01:56;33.00;24.70
42095;DHT22;27753;55.724;37.612;2023-04-24T09:04:24;33.50;24.90
42095;DHT22;27753;55.724;37.612;2023-04-24T09:06:56;34.90;24.60
42095;DHT22;27753;55.724;37.612;2023-04-24T09:09:25;36.10;24.30
42095;DHT22;27753;55.724;37.612;2023-04-24T09:11:52;37.40;23.80
42095;DHT22;27753;55.724;37.612;2023-04-24T09:14:21;36.50;23.50
42095;DHT22;27753;55.724;37.612;2023-04-24T09:16:47;36.10;23.90
42095;DHT22;27753;55.724;37.612;2023-04-24T09:19:13;36.10;23.80
42095;DHT22;27753;55.724;37.612;2023-04-24T09:21:39;35.70;23.70
42095;DHT22;27753;55.724;37.612;2023-04-24T09:24:15;33.90;23.90
42095;DHT22;27753;55.724;37.612;2023-04-24T09:26:43;31.70;24.80
42095;DHT22;27753;55.724;37.612;2023-04-24T09:29:14;30.00;25.40
42095;DHT22;27753;55.724;37.612;2023-04-24T09:31:40;28.90;25.50
42095;DHT22;27753;55.724;37.612;2023-04-24T09:34:07;28.00;26.50
42095;DHT22;27753;55.724;37.612;2023-04-24T09:36:35;27.70;26.90
42095;DHT22;27753;55.724;37.612;2023-04-24T09:39:11;27.50;27.00
42095;DHT22;27753;55.724;37.612;2023-04-24T09:41:49;27.40;27.00
42095;DHT22;27753;55.724;37.612;2023-04-24T09:44:21;27.30;27.00
42095;DHT22;27753;55.724;37.612;2023-04-24T09:47:09;28.00;27.40
42095;DHT22;27753;55.724;37.612;2023-04-24T09:49:35;30.70;27.00
42095;DHT22;27753;55.724;37.612;2023-04-24T09:52:09;32.90;26.00
42095;DHT22;27753;55.724;37.612;2023-04-24T09:54:36;34.70;24.80
42095;DHT22;27753;55.724;37.612;2023-04-24T09:59:29;36.20;23.60
42095;DHT22;27753;55.724;37.612;2023-04-24T10:01:54;35.50;23.90
42095;DHT22;27753;55.724;37.612;2023-04-24T10:04:28;32.80;24.10
42095;DHT22;27753;55.724;37.612;2023-04-24T10:06:57;31.00;25.10
42095;DHT22;27753;55.724;37.612;2023-04-24T10:09:25;29.90;25.60
42095;DHT22;27753;55.724;37.612;2023-04-24T10:14:22;28.90;26.00
42095;DHT22;27753;55.724;37.612;2023-04-24T10:16:49;27.10;26.90
42095;DHT22;27753;55.724;37.612;2023-04-24T10:19:16;26.80;27.30
42095;DHT22;27753;55.724;37.612;2023-04-24T10:21:44;27.10;27.50
42095;DHT22;27753;55.724;37.612;2023-04-24T10:24:17;27.60;27.10
42095;DHT22;27753;55.724;37.612;2023-04-24T10:26:45;27.50;27.20
42095;DHT22;27753;55.724;37.612;2023-04-24T10:29:12;27.10;27.10
42095;DHT22;27753;55.724;37.612;2023-04-24T10:31:39;26.70;27.50
42095;DHT22;27753;55.724;37.612;2023-04-24T10:34:06;25.90;27.60
42095;DHT22;27753;55.724;37.612;2023-04-24T10:36:38;25.00;28.50
42095;DHT22;27753;55.724;37.612;2023-04-24T10:39:09;24.30;28.80
42095;DHT22;27753;55.724;37.612;2023-04-24T10:41:37;23.90;29.70
42095;DHT22;27753;55.724;37.612;2023-04-24T10:44:13;23.80;29.70
42095;DHT22;27753;55.724;37.612;2023-04-24T10:46:42;23.70;29.80
42095;DHT22;27753;55.724;37.612;2023-04-24T10:49:08;23.30;29.70
42095;DHT22;27753;55.724;37.612;2023-04-24T10:51:48;23.20;30.00
42095;DHT22;27753;55.724;37.612;2023-04-24T10:54:36;23.30;29.70
42095;DHT22;27753;55.724;37.612;2023-04-24T11:00:15;22.70;30.10
42095;DHT22;27753;55.724;37.612;2023-04-24T11:02:41;23.00;30.00
42095;DHT22;27753;55.724;37.612;2023-04-24T11:05:15;23.10;30.00
42095;DHT22;27753;55.724;37.612;2023-04-24T11:08:10;23.30;30.00
42095;DHT22;27753;55.724;37.612;2023-04-24T11:10:45;23.30;29.90
42095;DHT22;27753;55.724;37.612;2023-04-24T11:13:15;23.30;29.80
42095;DHT22;27753;55.724;37.612;2023-04-24T11:15:42;23.10;30.10
42095;DHT22;27753;55.724;37.612;2023-04-24T11:18:14;23.00;30.40
42095;DHT22;27753;55.724;37.612;2023-04-24T11:20:44;22.80;30.00
42095;DHT22;27753;55.724;37.612;2023-04-24T11:23:14;22.80;30.20
42095;DHT22;27753;55.724;37.612;2023-04-24T11:25:41;22.80;30.00
42095;DHT22;27753;55.724;37.612;2023-04-24T11:28:07;22.70;30.30
42095;DHT22;27753;55.724;37.612;2023-04-24T11:30:33;22.50;30.00
42095;DHT22;27753;55.724;37.612;2023-04-24T11:33:04;22.50;30.60
42095;DHT22;27753;55.724;37.612;2023-04-24T11:35:35;22.60;30.90
42095;DHT22;27753;55.724;37.612;2023-04-24T11:38:03;22.50;30.60
42095;DHT22;27753;55.724;37.612;2023-04-24T11:40:30;22.40;30.10
42095;DHT22;27753;55.724;37.612;2023-04-24T11:42:56;22.10;30.50
42095;DHT22;27753;55.724;37.612;2023-04-24T11:45:29;21.90;30.80
42095;DHT22;27753;55.724;37.612;2023-04-24T11:47:56;21.90;30.60
42095;DHT22;27753;55.724;37.612;2023-04-24T11:50:23;21.60;30.50
42095;DHT22;27753;55.724;37.612;2023-04-24T11:52:51;21.70;30.80
42095;DHT22;27753;55.724;37.612;2023-04-24T11:57:50;22.00;31.10
42095;DHT22;27753;55.724;37.612;2023-04-24T12:00:18;22.20;30.40
42095;DHT22;27753;55.724;37.612;2023-04-24T12:02:46;22.30;30.80
42095;DHT22;27753;55.724;37.612;2023-04-24T12:05:23;22.20;30.20
42095;DHT22;27753;55.724;37.612;2023-04-24T12:07:49;22.00;30.70
42095;DHT22;27753;55.724;37.612;2023-04-24T12:10:22;22.00;30.70
42095;DHT22;27753;55.724;37.612;2023-04-24T12:12:48;22.20;30.80
42095;DHT22;27753;55.724;37.612;2023-04-24T12:15:16;22.20;30.70
42095;DHT22;27753;55.724;37.612;2023-04-24T12:17:43;22.30;31.10
42095;DHT22;27753;55.724;37.612;2023-04-24T12:20:09;22.30;30.90
42095;DHT22;27753;55.724;37.612;2023-04-24T12:22:52;22.10;30.40
42095;DHT22;27753;55.724;37.612;2023-04-24T12:25:23;22.00;31.20
42095;DHT22;27753;55.724;37.612;2023-04-24T12:28:11;22.20;31.30
42095;DHT22;27753;55.724;37.612;2023-04-24T12:30:43;22.20;30.90
42095;DHT22;27753;55.724;37.612;2023-04-24T12:33:10;22.20;31.00
42095;DHT22;27753;55.724;37.612;2023-04-24T12:35:36;22.10;30.60
42095;DHT22;27753;55.724;37.612;2023-04-24T12:38:06;21.70;30.90
42095;DHT22;27753;55.724;37.612;2023-04-24T12:40:33;21.40;30.80
42095;DHT22;27753;55.724;37.612;2023-04-24T12:42:59;21.30;31.50
42095;DHT22;27753;55.724;37.612;2023-04-24T12:45:25;21.30;31.60
42095;DHT22;27753;55.724;37.612;2023-04-24T12:47:53;21.30;31.90
42095;DHT22;27753;55.724;37.612;2023-04-24T12:50:19;21.50;31.70
42095;DHT22;27753;55.724;37.612;2023-04-24T12:52:45;21.60;31.30
42095;DHT22;27753;55.724;37.612;2023-04-24T12:55:11;21.50;30.40
42095;DHT22;27753;55.724;37.612;2023-04-24T12:57:38;21.50;30.50
42095;DHT22;27753;55.724;37.612;2023-04-24T13:00:07;21.50;30.60
42095;DHT22;27753;55.724;37.612;2023-04-24T13:02:33;21.40;30.70
42095;DHT22;27753;55.724;37.612;2023-04-24T13:04:59;21.40;30.80
42095;DHT22;27753;55.724;37.612;2023-04-24T13:07:26;21.40;30.80
42095;DHT22;27753;55.724;37.612;2023-04-24T13:09:53;21.40;30.90
42095;DHT22;27753;55.724;37.612;2023-04-24T13:12:19;21.40;31.10
42095;DHT22;27753;55.724;37.612;2023-04-24T13:14:46;21.30;31.20
42095;DHT22;27753;55.724;37.612;2023-04-24T13:17:12;21.20;31.60
42095;DHT22;27753;55.724;37.612;2023-04-24T13:19:43;21.10;31.70
42095;DHT22;27753;55.724;37.612;2023-04-24T13:22:10;21.10;32.00
42095;DHT22;27753;55.724;37.612;2023-04-24T13:24:38;21.10;31.90
42095;DHT22;27753;55.724;37.612;2023-04-24T13:27:05;21.00;32.00
42095;DHT22;27753;55.724;37.612;2023-04-24T13:29:31;21.00;32.40
42095;DHT22;27753;55.724;37.612;2023-04-24T13:31:57;21.10;32.20
42095;DHT22;27753;55.724;37.612;2023-04-24T13:34:23;21.00;32.40
42095;DHT22;27753;55.724;37.612;2023-04-24T13:36:52;21.00;32.20
42095;DHT22;27753;55.724;37.612;2023-04-24T13:39:18;21.00;32.10
42095;DHT22;27753;55.724;37.612;2023-04-24T13:41:44;20.90;32.00
42095;DHT22;27753;55.724;37.612;2023-04-24T13:44:10;20.80;32.10
42095;DHT22;27753;55.724;37.612;2023-04-24T13:46:36;20.70;32.00
42095;DHT22;27753;55.724;37.612;2023-04-24T13:49:02;20.70;31.70
42095;DHT22;27753;55.724;37.612;2023-04-24T13:51:30;20.60;32.00
42095;DHT22;27753;55.724;37.612;2023-04-24T13:53:56;20.60;32.20
42095;DHT22;27753;55.724;37.612;2023-04-24T13:56:22;20.60;31.90
42095;DHT22;27753;55.724;37.612;2023-04-24T13:58:48;20.80;31.90
42095;DHT22;27753;55.724;37.612;2023-04-24T14:01:14;20.80;31.90
42095;DHT22;27753;55.724;37.612;2023-04-24T14:03:41;21.00;32.10
42095;DHT22;27753;55.724;37.612;2023-04-24T14:06:08;21.50;31.50
42095;DHT22;27753;55.724;37.612;2023-04-24T14:08:34;22.50;31.10
42095;DHT22;27753;55.724;37.612;2023-04-24T14:11:00;23.40;30.10
42095;DHT22;27753;55.724;37.612;2023-04-24T14:13:26;23.80;29.50
42095;DHT22;27753;55.724;37.612;2023-04-24T14:15:53;24.40;29.40
42095;DHT22;27753;55.724;37.612;2023-04-24T14:18:19;25.00;28.70
42095;DHT22;27753;55.724;37.612;2023-04-24T14:20:45;25.30;28.70
42095;DHT22;27753;55.724;37.612;2023-04-24T14:23:11;25.10;28.10
42095;DHT22;27753;55.724;37.612;2023-04-24T14:25:37;24.20;28.50
42095;DHT22;27753;55.724;37.612;2023-04-24T14:28:02;23.40;29.10
42095;DHT22;27753;55.724;37.612;2023-04-24T14:30:28;22.80;29.20
42095;DHT22;27753;55.724;37.612;2023-04-24T14:32:54;22.30;29.70
42095;DHT22;27753;55.724;37.612;2023-04-24T14:35:20;21.90;29.80
42095;DHT22;27753;55.724;37.612;2023-04-24T14:37:46;21.60;30.10
42095;DHT22;27753;55.724;37.612;2023-04-24T14:40:13;21.50;30.70
42095;DHT22;27753;55.724;37.612;2023-04-24T14:42:39;21.50;30.40
42095;DHT22;27753;55.724;37.612;2023-04-24T14:45:05;21.30;30.70
42095;DHT22;27753;55.724;37.612;2023-04-24T14:47:32;21.30;30.90
42095;DHT22;27753;55.724;37.612;2023-04-24T14:49:58;21.20;30.90
42095;DHT22;27753;55.724;37.612;2023-04-24T14:52:24;21.10;30.90
42095;DHT22;27753;55.724;37.612;2023-04-24T14:54:50;21.00;31.40
42095;DHT22;27753;55.724;37.612;2023-04-24T14:57:16;20.90;31.30
42095;DHT22;27753;55.724;37.612;2023-04-24T14:59:42;20.90;31.30
42095;DHT22;27753;55.724;37.612;2023-04-24T15:02:07;20.90;31.40
42095;DHT22;27753;55.724;37.612;2023-04-24T15:04:33;20.90;31.30
42095;DHT22;27753;55.724;37.612;2023-04-24T15:06:59;20.80;31.30
42095;DHT22;27753;55.724;37.612;2023-04-24T15:09:25;20.70;31.30
42095;DHT22;27753;55.724;37.612;2023-04-24T15:11:52;20.60;31.30
42095;DHT22;27753;55.724;37.612;2023-04-24T15:14:18;20.50;31.60
42095;DHT22;27753;55.724;37.612;2023-04-24T15:16:45;20.50;31.90
42095;DHT22;27753;55.724;37.612;2023-04-24T15:19:11;20.50;31.90
42095;DHT22;27753;55.724;37.612;2023-04-24T15:21:37;20.40;31.80
42095;DHT22;27753;55.724;37.612;2023-04-24T15:24:04;20.30;31.80
42095;DHT22;27753;55.724;37.612;2023-04-24T15:26:31;20.30;32.10
42095;DHT22;27753;55.724;37.612;2023-04-24T15:28:57;20.20;32.40
42095;DHT22;27753;55.724;37.612;2023-04-24T15:31:23;20.20;32.40